sensor_id;sensor_type;location;lat;lon;timestamp;P1;durP1;ratioP1;P2;durP2;ratioP2
69625;SDS011;56847;51.984;5.088;2024-01-30T00:00:17;21.80;;;15.40;;
69625;SDS011;56847;51.984;5.088;2024-01-30T00:02:44;26.52;;;16.60;;
69625;SDS011;56847;51.984;5.088;2024-01-30T00:05:13;25.85;;;16.50;;
69625;SDS011;56847;51.984;5.088;2024-01-30T00:07:40;31.03;;;16.70;;
69625;SDS011;56847;51.984;5.088;2024-01-30T00:10:09;23.92;;;15.15;;
69625;SDS011;56847;51.984;5.088;2024-01-30T00:12:36;25.92;;;15.95;;
69625;SDS011;56847;51.984;5.088;2024-01-30T00:15:07;27.80;;;14.98;;
69625;SDS011;56847;51.984;5.088;2024-01-30T00:17:38;24.00;;;15.35;;
69625;SDS011;56847;51.984;5.088;2024-01-30T00:20:11;26.23;;;15.20;;
69625;SDS011;56847;51.984;5.088;2024-01-30T00:22:39;24.27;;;15.95;;
69625;SDS011;56847;51.984;5.088;2024-01-30T00:25:06;25.90;;;16.42;;
69625;SDS011;56847;51.984;5.088;2024-01-30T00:27:34;26.00;;;15.10;;
69625;SDS011;56847;51.984;5.088;2024-01-30T00:30:01;25.40;;;16.27;;
69625;SDS011;56847;51.984;5.088;2024-01-30T00:32:29;26.77;;;15.97;;
69625;SDS011;56847;51.984;5.088;2024-01-30T00:34:56;27.27;;;14.88;;
69625;SDS011;56847;51.984;5.088;2024-01-30T00:37:24;20.80;;;15.02;;
69625;SDS011;56847;51.984;5.088;2024-01-30T00:39:53;26.27;;;15.00;;
69625;SDS011;56847;51.984;5.088;2024-01-30T00:42:20;25.27;;;15.35;;
69625;SDS011;56847;51.984;5.088;2024-01-30T00:44:50;19.17;;;13.43;;
69625;SDS011;56847;51.984;5.088;2024-01-30T00:47:17;29.17;;;14.18;;
69625;SDS011;56847;51.984;5.088;2024-01-30T00:49:44;19.80;;;13.48;;
69625;SDS011;56847;51.984;5.088;2024-01-30T00:52:12;24.67;;;14.27;;
69625;SDS011;56847;51.984;5.088;2024-01-30T00:54:39;26.52;;;15.10;;
69625;SDS011;56847;51.984;5.088;2024-01-30T00:57:07;22.17;;;13.80;;
69625;SDS011;56847;51.984;5.088;2024-01-30T00:59:37;22.50;;;13.18;;
69625;SDS011;56847;51.984;5.088;2024-01-30T01:02:07;25.42;;;14.30;;
69625;SDS011;56847;51.984;5.088;2024-01-30T01:04:34;19.70;;;12.70;;
69625;SDS011;56847;51.984;5.088;2024-01-30T01:07:01;21.02;;;14.85;;
69625;SDS011;56847;51.984;5.088;2024-01-30T01:09:28;21.27;;;13.60;;
69625;SDS011;56847;51.984;5.088;2024-01-30T01:11:55;20.00;;;12.40;;
69625;SDS011;56847;51.984;5.088;2024-01-30T01:14:23;21.20;;;14.15;;
69625;SDS011;56847;51.984;5.088;2024-01-30T01:16:50;19.17;;;13.00;;
69625;SDS011;56847;51.984;5.088;2024-01-30T01:19:17;19.52;;;13.65;;
69625;SDS011;56847;51.984;5.088;2024-01-30T01:21:44;20.83;;;12.97;;
69625;SDS011;56847;51.984;5.088;2024-01-30T01:24:11;19.25;;;13.30;;
69625;SDS011;56847;51.984;5.088;2024-01-30T01:26:44;23.45;;;13.85;;
69625;SDS011;56847;51.984;5.088;2024-01-30T01:29:11;21.80;;;13.13;;
69625;SDS011;56847;51.984;5.088;2024-01-30T01:31:39;22.77;;;14.77;;
69625;SDS011;56847;51.984;5.088;2024-01-30T01:34:10;21.83;;;13.40;;
69625;SDS011;56847;51.984;5.088;2024-01-30T01:36:38;20.42;;;13.27;;
69625;SDS011;56847;51.984;5.088;2024-01-30T01:39:08;22.35;;;13.98;;
69625;SDS011;56847;51.984;5.088;2024-01-30T01:41:38;19.23;;;12.05;;
69625;SDS011;56847;51.984;5.088;2024-01-30T01:44:09;21.88;;;15.27;;
69625;SDS011;56847;51.984;5.088;2024-01-30T01:46:36;20.37;;;12.87;;
69625;SDS011;56847;51.984;5.088;2024-01-30T01:49:04;21.35;;;13.70;;
69625;SDS011;56847;51.984;5.088;2024-01-30T01:51:33;19.88;;;14.98;;
69625;SDS011;56847;51.984;5.088;2024-01-30T01:54:03;23.33;;;12.95;;
69625;SDS011;56847;51.984;5.088;2024-01-30T01:56:32;22.77;;;14.18;;
69625;SDS011;56847;51.984;5.088;2024-01-30T01:59:04;21.13;;;12.40;;
69625;SDS011;56847;51.984;5.088;2024-01-30T02:01:33;25.40;;;14.02;;
69625;SDS011;56847;51.984;5.088;2024-01-30T02:04:04;23.00;;;14.55;;
69625;SDS011;56847;51.984;5.088;2024-01-30T02:06:31;23.52;;;14.85;;
69625;SDS011;56847;51.984;5.088;2024-01-30T02:09:00;23.65;;;14.55;;
69625;SDS011;56847;51.984;5.088;2024-01-30T02:11:31;20.47;;;13.53;;
69625;SDS011;56847;51.984;5.088;2024-01-30T02:14:02;19.33;;;13.20;;
69625;SDS011;56847;51.984;5.088;2024-01-30T02:16:31;21.33;;;14.38;;
69625;SDS011;56847;51.984;5.088;2024-01-30T02:18:59;22.70;;;13.65;;
69625;SDS011;56847;51.984;5.088;2024-01-30T02:21:26;24.33;;;14.23;;
69625;SDS011;56847;51.984;5.088;2024-01-30T02:23:54;18.23;;;13.40;;
69625;SDS011;56847;51.984;5.088;2024-01-30T02:26:23;20.05;;;14.32;;
69625;SDS011;56847;51.984;5.088;2024-01-30T02:28:50;19.98;;;14.90;;
69625;SDS011;56847;51.984;5.088;2024-01-30T02:31:17;21.15;;;13.07;;
69625;SDS011;56847;51.984;5.088;2024-01-30T02:33:47;18.65;;;13.52;;
69625;SDS011;56847;51.984;5.088;2024-01-30T02:36:16;22.60;;;13.17;;
69625;SDS011;56847;51.984;5.088;2024-01-30T02:38:44;24.23;;;13.73;;
69625;SDS011;56847;51.984;5.088;2024-01-30T02:41:13;24.15;;;15.32;;
69625;SDS011;56847;51.984;5.088;2024-01-30T02:43:43;19.92;;;14.13;;
69625;SDS011;56847;51.984;5.088;2024-01-30T02:46:10;23.60;;;15.23;;
69625;SDS011;56847;51.984;5.088;2024-01-30T02:48:37;21.23;;;13.50;;
69625;SDS011;56847;51.984;5.088;2024-01-30T02:51:08;21.63;;;14.10;;
69625;SDS011;56847;51.984;5.088;2024-01-30T02:53:37;22.15;;;15.02;;
69625;SDS011;56847;51.984;5.088;2024-01-30T02:56:05;20.58;;;13.73;;
69625;SDS011;56847;51.984;5.088;2024-01-30T02:58:32;20.25;;;14.50;;
69625;SDS011;56847;51.984;5.088;2024-01-30T03:01:00;20.60;;;13.73;;
69625;SDS011;56847;51.984;5.088;2024-01-30T03:03:27;24.90;;;14.57;;
69625;SDS011;56847;51.984;5.088;2024-01-30T03:05:54;21.35;;;13.95;;
69625;SDS011;56847;51.984;5.088;2024-01-30T03:08:21;21.25;;;12.80;;
69625;SDS011;56847;51.984;5.088;2024-01-30T03:10:48;25.38;;;13.82;;
69625;SDS011;56847;51.984;5.088;2024-01-30T03:13:15;21.33;;;12.60;;
69625;SDS011;56847;51.984;5.088;2024-01-30T03:15:43;21.80;;;12.48;;
69625;SDS011;56847;51.984;5.088;2024-01-30T03:18:10;18.40;;;13.50;;
69625;SDS011;56847;51.984;5.088;2024-01-30T03:20:37;23.13;;;12.80;;
69625;SDS011;56847;51.984;5.088;2024-01-30T03:23:04;19.83;;;14.07;;
69625;SDS011;56847;51.984;5.088;2024-01-30T03:25:30;23.30;;;13.57;;
69625;SDS011;56847;51.984;5.088;2024-01-30T03:27:57;22.42;;;12.70;;
69625;SDS011;56847;51.984;5.088;2024-01-30T03:30:24;28.33;;;13.82;;
69625;SDS011;56847;51.984;5.088;2024-01-30T03:32:51;20.67;;;13.13;;
69625;SDS011;56847;51.984;5.088;2024-01-30T03:35:19;19.98;;;12.20;;
69625;SDS011;56847;51.984;5.088;2024-01-30T03:37:46;21.50;;;12.57;;
69625;SDS011;56847;51.984;5.088;2024-01-30T03:40:13;20.17;;;12.48;;
69625;SDS011;56847;51.984;5.088;2024-01-30T03:42:42;20.83;;;13.20;;
69625;SDS011;56847;51.984;5.088;2024-01-30T03:45:09;19.90;;;11.73;;
69625;SDS011;56847;51.984;5.088;2024-01-30T03:47:36;24.10;;;13.98;;
69625;SDS011;56847;51.984;5.088;2024-01-30T03:50:03;17.00;;;11.57;;
69625;SDS011;56847;51.984;5.088;2024-01-30T03:52:33;19.38;;;12.38;;
69625;SDS011;56847;51.984;5.088;2024-01-30T03:55:00;22.15;;;12.85;;
69625;SDS011;56847;51.984;5.088;2024-01-30T03:57:27;23.58;;;11.50;;
69625;SDS011;56847;51.984;5.088;2024-01-30T03:59:54;24.35;;;13.40;;
69625;SDS011;56847;51.984;5.088;2024-01-30T04:02:23;17.57;;;11.03;;
69625;SDS011;56847;51.984;5.088;2024-01-30T04:04:50;19.52;;;11.65;;
69625;SDS011;56847;51.984;5.088;2024-01-30T04:07:17;21.75;;;13.15;;
69625;SDS011;56847;51.984;5.088;2024-01-30T04:09:48;16.17;;;11.38;;
69625;SDS011;56847;51.984;5.088;2024-01-30T04:12:15;26.77;;;12.80;;
69625;SDS011;56847;51.984;5.088;2024-01-30T04:14:42;26.50;;;13.57;;
69625;SDS011;56847;51.984;5.088;2024-01-30T04:17:14;16.83;;;12.55;;
69625;SDS011;56847;51.984;5.088;2024-01-30T04:19:41;18.70;;;12.35;;
69625;SDS011;56847;51.984;5.088;2024-01-30T04:22:08;21.30;;;12.55;;
69625;SDS011;56847;51.984;5.088;2024-01-30T04:24:35;23.48;;;13.38;;
69625;SDS011;56847;51.984;5.088;2024-01-30T04:27:02;18.60;;;11.77;;
69625;SDS011;56847;51.984;5.088;2024-01-30T04:29:29;19.38;;;12.10;;
69625;SDS011;56847;51.984;5.088;2024-01-30T04:31:56;15.82;;;12.18;;
69625;SDS011;56847;51.984;5.088;2024-01-30T04:34:23;23.85;;;13.40;;
69625;SDS011;56847;51.984;5.088;2024-01-30T04:36:50;18.08;;;12.73;;
69625;SDS011;56847;51.984;5.088;2024-01-30T04:39:17;19.53;;;11.53;;
69625;SDS011;56847;51.984;5.088;2024-01-30T04:41:44;20.25;;;12.60;;
69625;SDS011;56847;51.984;5.088;2024-01-30T04:44:17;21.10;;;12.45;;
69625;SDS011;56847;51.984;5.088;2024-01-30T04:46:44;22.63;;;12.20;;
69625;SDS011;56847;51.984;5.088;2024-01-30T04:49:11;20.92;;;11.50;;
69625;SDS011;56847;51.984;5.088;2024-01-30T04:51:38;20.33;;;11.30;;
69625;SDS011;56847;51.984;5.088;2024-01-30T04:54:05;19.48;;;12.13;;
69625;SDS011;56847;51.984;5.088;2024-01-30T04:56:32;18.30;;;12.35;;
69625;SDS011;56847;51.984;5.088;2024-01-30T04:59:02;17.48;;;10.68;;
69625;SDS011;56847;51.984;5.088;2024-01-30T05:01:30;20.83;;;11.93;;
69625;SDS011;56847;51.984;5.088;2024-01-30T05:03:57;19.83;;;11.80;;
69625;SDS011;56847;51.984;5.088;2024-01-30T05:06:26;19.65;;;12.15;;
69625;SDS011;56847;51.984;5.088;2024-01-30T05:08:54;18.67;;;12.60;;
69625;SDS011;56847;51.984;5.088;2024-01-30T05:11:21;17.45;;;11.60;;
69625;SDS011;56847;51.984;5.088;2024-01-30T05:13:48;22.35;;;12.13;;
69625;SDS011;56847;51.984;5.088;2024-01-30T05:16:18;18.57;;;10.97;;
69625;SDS011;56847;51.984;5.088;2024-01-30T05:18:45;18.73;;;11.00;;
69625;SDS011;56847;51.984;5.088;2024-01-30T05:21:12;19.23;;;12.32;;
69625;SDS011;56847;51.984;5.088;2024-01-30T05:23:39;24.98;;;11.50;;
69625;SDS011;56847;51.984;5.088;2024-01-30T05:26:09;20.45;;;11.50;;
69625;SDS011;56847;51.984;5.088;2024-01-30T05:28:36;18.43;;;11.17;;
69625;SDS011;56847;51.984;5.088;2024-01-30T05:31:03;20.80;;;11.07;;
69625;SDS011;56847;51.984;5.088;2024-01-30T05:33:30;24.65;;;11.70;;
69625;SDS011;56847;51.984;5.088;2024-01-30T05:35:57;20.98;;;11.32;;
69625;SDS011;56847;51.984;5.088;2024-01-30T05:38:24;25.05;;;12.02;;
69625;SDS011;56847;51.984;5.088;2024-01-30T05:40:51;16.63;;;10.77;;
69625;SDS011;56847;51.984;5.088;2024-01-30T05:43:20;19.65;;;10.60;;
69625;SDS011;56847;51.984;5.088;2024-01-30T05:45:49;23.85;;;11.50;;
69625;SDS011;56847;51.984;5.088;2024-01-30T05:48:17;16.77;;;10.27;;
69625;SDS011;56847;51.984;5.088;2024-01-30T05:50:44;19.52;;;10.85;;
69625;SDS011;56847;51.984;5.088;2024-01-30T05:53:13;25.60;;;10.27;;
69625;SDS011;56847;51.984;5.088;2024-01-30T05:55:40;20.58;;;10.60;;
69625;SDS011;56847;51.984;5.088;2024-01-30T05:58:07;16.58;;;10.25;;
69625;SDS011;56847;51.984;5.088;2024-01-30T06:00:34;21.83;;;11.40;;
69625;SDS011;56847;51.984;5.088;2024-01-30T06:03:01;21.83;;;11.25;;
69625;SDS011;56847;51.984;5.088;2024-01-30T06:05:28;16.47;;;9.37;;
69625;SDS011;56847;51.984;5.088;2024-01-30T06:07:58;19.80;;;11.65;;
69625;SDS011;56847;51.984;5.088;2024-01-30T06:10:25;21.00;;;10.82;;
69625;SDS011;56847;51.984;5.088;2024-01-30T06:12:52;17.35;;;10.43;;
69625;SDS011;56847;51.984;5.088;2024-01-30T06:15:19;24.20;;;10.85;;
69625;SDS011;56847;51.984;5.088;2024-01-30T06:17:49;17.80;;;10.40;;
69625;SDS011;56847;51.984;5.088;2024-01-30T06:20:16;17.23;;;10.15;;
69625;SDS011;56847;51.984;5.088;2024-01-30T06:22:43;23.42;;;11.05;;
69625;SDS011;56847;51.984;5.088;2024-01-30T06:25:10;15.82;;;10.15;;
69625;SDS011;56847;51.984;5.088;2024-01-30T06:27:38;14.40;;;10.00;;
69625;SDS011;56847;51.984;5.088;2024-01-30T06:30:05;16.13;;;10.13;;
69625;SDS011;56847;51.984;5.088;2024-01-30T06:32:32;18.08;;;9.20;;
69625;SDS011;56847;51.984;5.088;2024-01-30T06:35:01;15.95;;;10.45;;
69625;SDS011;56847;51.984;5.088;2024-01-30T06:37:28;19.00;;;10.13;;
69625;SDS011;56847;51.984;5.088;2024-01-30T06:39:55;16.77;;;10.07;;
69625;SDS011;56847;51.984;5.088;2024-01-30T06:42:22;14.77;;;10.40;;
69625;SDS011;56847;51.984;5.088;2024-01-30T06:44:49;18.92;;;9.55;;
69625;SDS011;56847;51.984;5.088;2024-01-30T06:47:16;14.43;;;9.65;;
69625;SDS011;56847;51.984;5.088;2024-01-30T06:49:43;19.05;;;10.70;;
69625;SDS011;56847;51.984;5.088;2024-01-30T06:52:14;13.82;;;8.95;;
69625;SDS011;56847;51.984;5.088;2024-01-30T06:54:41;17.13;;;9.73;;
69625;SDS011;56847;51.984;5.088;2024-01-30T06:57:09;20.38;;;10.38;;
69625;SDS011;56847;51.984;5.088;2024-01-30T06:59:42;16.15;;;10.35;;
69625;SDS011;56847;51.984;5.088;2024-01-30T07:02:20;18.45;;;10.05;;
69625;SDS011;56847;51.984;5.088;2024-01-30T07:04:48;17.42;;;10.88;;
69625;SDS011;56847;51.984;5.088;2024-01-30T07:07:17;20.17;;;9.13;;
69625;SDS011;56847;51.984;5.088;2024-01-30T07:09:48;13.02;;;9.60;;
69625;SDS011;56847;51.984;5.088;2024-01-30T07:12:17;17.88;;;11.23;;
69625;SDS011;56847;51.984;5.088;2024-01-30T07:14:47;14.95;;;10.75;;
69625;SDS011;56847;51.984;5.088;2024-01-30T07:17:17;20.70;;;11.07;;
69625;SDS011;56847;51.984;5.088;2024-01-30T07:19:48;20.57;;;10.40;;
69625;SDS011;56847;51.984;5.088;2024-01-30T07:22:18;17.13;;;10.02;;
69625;SDS011;56847;51.984;5.088;2024-01-30T07:24:45;21.17;;;10.73;;
69625;SDS011;56847;51.984;5.088;2024-01-30T07:27:20;22.13;;;10.43;;
69625;SDS011;56847;51.984;5.088;2024-01-30T07:29:57;14.88;;;10.35;;
69625;SDS011;56847;51.984;5.088;2024-01-30T07:32:24;16.77;;;10.60;;
69625;SDS011;56847;51.984;5.088;2024-01-30T07:35:04;17.65;;;10.52;;
69625;SDS011;56847;51.984;5.088;2024-01-30T07:37:35;15.15;;;10.60;;
69625;SDS011;56847;51.984;5.088;2024-01-30T07:40:05;19.48;;;9.65;;
69625;SDS011;56847;51.984;5.088;2024-01-30T07:42:33;14.25;;;10.32;;
69625;SDS011;56847;51.984;5.088;2024-01-30T07:45:00;17.63;;;10.30;;
69625;SDS011;56847;51.984;5.088;2024-01-30T07:47:48;15.95;;;9.98;;
69625;SDS011;56847;51.984;5.088;2024-01-30T07:50:32;15.52;;;10.27;;
69625;SDS011;56847;51.984;5.088;2024-01-30T07:53:00;18.63;;;10.25;;
69625;SDS011;56847;51.984;5.088;2024-01-30T07:55:27;17.42;;;11.40;;
69625;SDS011;56847;51.984;5.088;2024-01-30T07:57:57;14.67;;;9.23;;
69625;SDS011;56847;51.984;5.088;2024-01-30T08:00:30;17.52;;;9.88;;
69625;SDS011;56847;51.984;5.088;2024-01-30T08:03:00;16.65;;;10.15;;
69625;SDS011;56847;51.984;5.088;2024-01-30T08:05:42;20.35;;;11.13;;
69625;SDS011;56847;51.984;5.088;2024-01-30T08:08:17;20.65;;;10.50;;
69625;SDS011;56847;51.984;5.088;2024-01-30T08:11:08;17.83;;;9.67;;
69625;SDS011;56847;51.984;5.088;2024-01-30T08:13:35;20.75;;;9.85;;
69625;SDS011;56847;51.984;5.088;2024-01-30T08:16:03;21.02;;;11.15;;
69625;SDS011;56847;51.984;5.088;2024-01-30T08:18:30;17.00;;;10.13;;
69625;SDS011;56847;51.984;5.088;2024-01-30T08:21:07;19.48;;;10.95;;
69625;SDS011;56847;51.984;5.088;2024-01-30T08:23:38;18.30;;;10.03;;
69625;SDS011;56847;51.984;5.088;2024-01-30T08:26:06;18.63;;;10.13;;
69625;SDS011;56847;51.984;5.088;2024-01-30T08:28:36;19.80;;;11.05;;
69625;SDS011;56847;51.984;5.088;2024-01-30T08:31:03;24.13;;;10.95;;
69625;SDS011;56847;51.984;5.088;2024-01-30T08:33:30;21.65;;;11.10;;
69625;SDS011;56847;51.984;5.088;2024-01-30T08:35:58;26.30;;;10.83;;
69625;SDS011;56847;51.984;5.088;2024-01-30T08:38:25;20.38;;;10.10;;
69625;SDS011;56847;51.984;5.088;2024-01-30T08:40:52;17.08;;;10.15;;
69625;SDS011;56847;51.984;5.088;2024-01-30T08:43:19;18.50;;;10.25;;
69625;SDS011;56847;51.984;5.088;2024-01-30T08:45:46;20.35;;;10.68;;
69625;SDS011;56847;51.984;5.088;2024-01-30T08:48:13;17.67;;;9.90;;
69625;SDS011;56847;51.984;5.088;2024-01-30T08:50:40;21.15;;;9.88;;
69625;SDS011;56847;51.984;5.088;2024-01-30T08:53:07;20.52;;;10.82;;
69625;SDS011;56847;51.984;5.088;2024-01-30T08:55:34;21.98;;;10.60;;
69625;SDS011;56847;51.984;5.088;2024-01-30T08:58:01;17.48;;;11.43;;
69625;SDS011;56847;51.984;5.088;2024-01-30T09:00:30;20.17;;;9.70;;
69625;SDS011;56847;51.984;5.088;2024-01-30T09:02:57;20.98;;;10.02;;
69625;SDS011;56847;51.984;5.088;2024-01-30T09:05:27;16.85;;;10.43;;
69625;SDS011;56847;51.984;5.088;2024-01-30T09:07:57;24.75;;;11.23;;
69625;SDS011;56847;51.984;5.088;2024-01-30T09:10:26;20.42;;;10.55;;
69625;SDS011;56847;51.984;5.088;2024-01-30T09:12:54;19.50;;;10.70;;
69625;SDS011;56847;51.984;5.088;2024-01-30T09:15:21;30.33;;;9.95;;
69625;SDS011;56847;51.984;5.088;2024-01-30T09:17:52;24.50;;;11.73;;
69625;SDS011;56847;51.984;5.088;2024-01-30T09:20:19;18.33;;;10.27;;
69625;SDS011;56847;51.984;5.088;2024-01-30T09:22:47;25.45;;;12.05;;
69625;SDS011;56847;51.984;5.088;2024-01-30T09:25:14;27.60;;;12.03;;
69625;SDS011;56847;51.984;5.088;2024-01-30T09:27:41;30.77;;;12.38;;
69625;SDS011;56847;51.984;5.088;2024-01-30T09:30:10;26.80;;;11.57;;
69625;SDS011;56847;51.984;5.088;2024-01-30T09:32:39;19.55;;;9.43;;
69625;SDS011;56847;51.984;5.088;2024-01-30T09:35:06;18.05;;;10.00;;
69625;SDS011;56847;51.984;5.088;2024-01-30T09:37:34;19.13;;;10.03;;
69625;SDS011;56847;51.984;5.088;2024-01-30T09:40:01;20.40;;;10.38;;
69625;SDS011;56847;51.984;5.088;2024-01-30T09:42:36;16.08;;;10.73;;
69625;SDS011;56847;51.984;5.088;2024-01-30T09:45:04;17.20;;;9.65;;
69625;SDS011;56847;51.984;5.088;2024-01-30T09:47:42;17.15;;;9.80;;
69625;SDS011;56847;51.984;5.088;2024-01-30T09:50:11;21.07;;;9.70;;
69625;SDS011;56847;51.984;5.088;2024-01-30T09:52:46;17.30;;;10.35;;
69625;SDS011;56847;51.984;5.088;2024-01-30T09:55:16;18.60;;;9.35;;
69625;SDS011;56847;51.984;5.088;2024-01-30T09:57:46;21.55;;;9.38;;
69625;SDS011;56847;51.984;5.088;2024-01-30T10:00:14;17.40;;;9.93;;
69625;SDS011;56847;51.984;5.088;2024-01-30T10:02:41;16.97;;;9.10;;
69625;SDS011;56847;51.984;5.088;2024-01-30T10:05:11;19.30;;;9.43;;
69625;SDS011;56847;51.984;5.088;2024-01-30T10:07:54;16.30;;;9.23;;
69625;SDS011;56847;51.984;5.088;2024-01-30T10:10:32;13.27;;;8.35;;
69625;SDS011;56847;51.984;5.088;2024-01-30T10:12:59;20.20;;;10.23;;
69625;SDS011;56847;51.984;5.088;2024-01-30T10:15:31;15.67;;;8.80;;
69625;SDS011;56847;51.984;5.088;2024-01-30T10:18:02;17.63;;;9.93;;
69625;SDS011;56847;51.984;5.088;2024-01-30T10:20:29;16.20;;;9.65;;
69625;SDS011;56847;51.984;5.088;2024-01-30T10:22:57;19.00;;;8.25;;
69625;SDS011;56847;51.984;5.088;2024-01-30T10:25:25;17.73;;;9.82;;
69625;SDS011;56847;51.984;5.088;2024-01-30T10:27:53;18.13;;;8.20;;
69625;SDS011;56847;51.984;5.088;2024-01-30T10:30:23;20.13;;;8.57;;
69625;SDS011;56847;51.984;5.088;2024-01-30T10:32:50;17.67;;;8.65;;
69625;SDS011;56847;51.984;5.088;2024-01-30T10:35:18;16.90;;;8.38;;
69625;SDS011;56847;51.984;5.088;2024-01-30T10:37:46;19.38;;;8.70;;
69625;SDS011;56847;51.984;5.088;2024-01-30T10:40:14;18.27;;;8.27;;
69625;SDS011;56847;51.984;5.088;2024-01-30T10:42:43;18.17;;;8.57;;
69625;SDS011;56847;51.984;5.088;2024-01-30T10:45:11;19.48;;;9.40;;
69625;SDS011;56847;51.984;5.088;2024-01-30T10:47:40;22.92;;;8.95;;
69625;SDS011;56847;51.984;5.088;2024-01-30T10:50:10;16.83;;;9.10;;
69625;SDS011;56847;51.984;5.088;2024-01-30T10:52:37;21.10;;;7.53;;
69625;SDS011;56847;51.984;5.088;2024-01-30T10:55:06;13.77;;;7.25;;
69625;SDS011;56847;51.984;5.088;2024-01-30T10:57:34;19.02;;;8.77;;
69625;SDS011;56847;51.984;5.088;2024-01-30T11:00:04;17.35;;;7.85;;
69625;SDS011;56847;51.984;5.088;2024-01-30T11:02:39;19.67;;;9.90;;
69625;SDS011;56847;51.984;5.088;2024-01-30T11:05:08;17.20;;;8.30;;
69625;SDS011;56847;51.984;5.088;2024-01-30T11:07:38;12.07;;;6.53;;
69625;SDS011;56847;51.984;5.088;2024-01-30T11:10:09;14.35;;;7.40;;
69625;SDS011;56847;51.984;5.088;2024-01-30T11:12:42;10.18;;;5.47;;
69625;SDS011;56847;51.984;5.088;2024-01-30T11:15:14;8.63;;;4.40;;
69625;SDS011;56847;51.984;5.088;2024-01-30T11:17:44;6.33;;;3.13;;
69625;SDS011;56847;51.984;5.088;2024-01-30T11:20:12;7.38;;;3.47;;
69625;SDS011;56847;51.984;5.088;2024-01-30T11:22:51;11.90;;;3.78;;
69625;SDS011;56847;51.984;5.088;2024-01-30T11:25:20;11.15;;;3.45;;
69625;SDS011;56847;51.984;5.088;2024-01-30T11:27:50;8.73;;;2.97;;
69625;SDS011;56847;51.984;5.088;2024-01-30T11:30:22;6.97;;;3.70;;
69625;SDS011;56847;51.984;5.088;2024-01-30T11:33:00;8.77;;;3.38;;
69625;SDS011;56847;51.984;5.088;2024-01-30T11:35:41;8.70;;;3.53;;
69625;SDS011;56847;51.984;5.088;2024-01-30T11:38:13;6.10;;;3.20;;
69625;SDS011;56847;51.984;5.088;2024-01-30T11:40:42;7.13;;;3.42;;
69625;SDS011;56847;51.984;5.088;2024-01-30T11:43:13;7.70;;;3.50;;
69625;SDS011;56847;51.984;5.088;2024-01-30T11:45:40;7.78;;;2.97;;
69625;SDS011;56847;51.984;5.088;2024-01-30T11:48:07;6.22;;;2.20;;
69625;SDS011;56847;51.984;5.088;2024-01-30T11:50:37;3.67;;;2.35;;
69625;SDS011;56847;51.984;5.088;2024-01-30T11:53:09;6.00;;;3.05;;
69625;SDS011;56847;51.984;5.088;2024-01-30T11:55:39;8.53;;;3.97;;
69625;SDS011;56847;51.984;5.088;2024-01-30T11:58:10;7.72;;;4.28;;
69625;SDS011;56847;51.984;5.088;2024-01-30T12:00:37;7.93;;;4.38;;
69625;SDS011;56847;51.984;5.088;2024-01-30T12:03:04;8.45;;;3.72;;
69625;SDS011;56847;51.984;5.088;2024-01-30T12:05:36;8.93;;;3.70;;
69625;SDS011;56847;51.984;5.088;2024-01-30T12:08:14;8.90;;;3.67;;
69625;SDS011;56847;51.984;5.088;2024-01-30T12:10:44;6.75;;;4.05;;
69625;SDS011;56847;51.984;5.088;2024-01-30T12:13:11;7.72;;;3.92;;
69625;SDS011;56847;51.984;5.088;2024-01-30T12:15:39;7.38;;;3.78;;
69625;SDS011;56847;51.984;5.088;2024-01-30T12:18:06;12.70;;;3.47;;
69625;SDS011;56847;51.984;5.088;2024-01-30T12:20:35;14.83;;;2.90;;
69625;SDS011;56847;51.984;5.088;2024-01-30T12:23:04;10.38;;;2.78;;
69625;SDS011;56847;51.984;5.088;2024-01-30T12:25:32;8.45;;;3.00;;
69625;SDS011;56847;51.984;5.088;2024-01-30T12:28:03;6.72;;;2.63;;
69625;SDS011;56847;51.984;5.088;2024-01-30T12:30:30;11.40;;;2.97;;
69625;SDS011;56847;51.984;5.088;2024-01-30T12:33:00;9.10;;;2.63;;
69625;SDS011;56847;51.984;5.088;2024-01-30T12:35:28;12.60;;;3.00;;
69625;SDS011;56847;51.984;5.088;2024-01-30T12:37:59;7.40;;;2.70;;
69625;SDS011;56847;51.984;5.088;2024-01-30T12:40:26;8.18;;;1.70;;
69625;SDS011;56847;51.984;5.088;2024-01-30T12:42:53;16.10;;;2.63;;
69625;SDS011;56847;51.984;5.088;2024-01-30T12:45:21;6.10;;;2.10;;
69625;SDS011;56847;51.984;5.088;2024-01-30T12:47:49;5.35;;;2.45;;
69625;SDS011;56847;51.984;5.088;2024-01-30T12:50:17;5.88;;;2.20;;
69625;SDS011;56847;51.984;5.088;2024-01-30T12:52:45;8.98;;;2.95;;
69625;SDS011;56847;51.984;5.088;2024-01-30T12:55:15;8.68;;;2.83;;
69625;SDS011;56847;51.984;5.088;2024-01-30T12:57:43;10.83;;;2.50;;
69625;SDS011;56847;51.984;5.088;2024-01-30T13:00:11;9.63;;;2.47;;
69625;SDS011;56847;51.984;5.088;2024-01-30T13:02:38;8.38;;;3.20;;
69625;SDS011;56847;51.984;5.088;2024-01-30T13:05:05;7.40;;;2.80;;
69625;SDS011;56847;51.984;5.088;2024-01-30T13:07:34;4.18;;;2.40;;
69625;SDS011;56847;51.984;5.088;2024-01-30T13:10:02;6.23;;;2.93;;
69625;SDS011;56847;51.984;5.088;2024-01-30T13:12:31;3.38;;;2.08;;
69625;SDS011;56847;51.984;5.088;2024-01-30T13:15:05;5.78;;;2.47;;
69625;SDS011;56847;51.984;5.088;2024-01-30T13:17:32;8.57;;;2.55;;
69625;SDS011;56847;51.984;5.088;2024-01-30T13:20:00;6.13;;;2.10;;
69625;SDS011;56847;51.984;5.088;2024-01-30T13:22:36;4.83;;;1.30;;
69625;SDS011;56847;51.984;5.088;2024-01-30T13:25:07;5.88;;;2.22;;
69625;SDS011;56847;51.984;5.088;2024-01-30T13:27:35;7.68;;;2.40;;
69625;SDS011;56847;51.984;5.088;2024-01-30T13:30:04;6.80;;;2.33;;
69625;SDS011;56847;51.984;5.088;2024-01-30T13:32:33;7.70;;;2.72;;
69625;SDS011;56847;51.984;5.088;2024-01-30T13:35:00;4.37;;;1.67;;
69625;SDS011;56847;51.984;5.088;2024-01-30T13:37:29;8.00;;;1.77;;
69625;SDS011;56847;51.984;5.088;2024-01-30T13:39:56;8.00;;;3.55;;
69625;SDS011;56847;51.984;5.088;2024-01-30T13:42:24;5.20;;;2.20;;
69625;SDS011;56847;51.984;5.088;2024-01-30T13:44:55;4.93;;;2.25;;
69625;SDS011;56847;51.984;5.088;2024-01-30T13:47:22;6.97;;;2.00;;
69625;SDS011;56847;51.984;5.088;2024-01-30T13:49:50;4.25;;;2.05;;
69625;SDS011;56847;51.984;5.088;2024-01-30T13:52:17;10.60;;;2.22;;
69625;SDS011;56847;51.984;5.088;2024-01-30T13:54:48;13.38;;;1.95;;
69625;SDS011;56847;51.984;5.088;2024-01-30T13:57:15;5.57;;;2.33;;
69625;SDS011;56847;51.984;5.088;2024-01-30T13:59:42;4.00;;;1.60;;
69625;SDS011;56847;51.984;5.088;2024-01-30T14:02:09;7.20;;;2.05;;
69625;SDS011;56847;51.984;5.088;2024-01-30T14:04:37;9.35;;;2.20;;
69625;SDS011;56847;51.984;5.088;2024-01-30T14:07:04;5.88;;;2.00;;
69625;SDS011;56847;51.984;5.088;2024-01-30T14:09:33;10.63;;;2.28;;
69625;SDS011;56847;51.984;5.088;2024-01-30T14:12:05;11.70;;;2.77;;
69625;SDS011;56847;51.984;5.088;2024-01-30T14:14:34;5.72;;;2.10;;
69625;SDS011;56847;51.984;5.088;2024-01-30T14:17:01;8.82;;;3.17;;
69625;SDS011;56847;51.984;5.088;2024-01-30T14:19:33;9.00;;;1.98;;
69625;SDS011;56847;51.984;5.088;2024-01-30T14:22:01;5.90;;;2.40;;
69625;SDS011;56847;51.984;5.088;2024-01-30T14:24:31;5.63;;;1.93;;
69625;SDS011;56847;51.984;5.088;2024-01-30T14:26:58;11.95;;;2.67;;
69625;SDS011;56847;51.984;5.088;2024-01-30T14:29:26;7.03;;;3.05;;
69625;SDS011;56847;51.984;5.088;2024-01-30T14:31:53;9.60;;;3.65;;
69625;SDS011;56847;51.984;5.088;2024-01-30T14:34:21;8.98;;;3.70;;
69625;SDS011;56847;51.984;5.088;2024-01-30T14:36:48;10.53;;;3.23;;